createdAt,value
2023-03-06T00:03:05.181Z,15.75
2023-03-06T00:07:10.126Z,13.07
2023-03-06T00:11:15.741Z,14.25
2023-03-06T00:15:19.102Z,13.05
2023-03-06T00:19:22.071Z,12.27
2023-03-06T00:23:28.589Z,15.32
2023-03-06T00:27:32.553Z,14.20
2023-03-06T00:31:36.232Z,15.10
2023-03-06T00:35:40.439Z,14.57
2023-03-06T00:39:45.201Z,15.27
2023-03-06T00:43:49.834Z,15.20
2023-03-06T00:47:52.835Z,14.57
2023-03-06T00:51:55.837Z,14.30
2023-03-06T00:56:04.936Z,16.02
2023-03-06T01:00:09.930Z,14.32
2023-03-06T01:04:15.578Z,14.07
2023-03-06T01:08:18.185Z,14.77
2023-03-06T01:12:23.576Z,14.18
2023-03-06T01:16:26.856Z,13.98
2023-03-06T01:20:30.980Z,13.00
2023-03-06T01:24:34.159Z,15.07
2023-03-06T01:28:39.322Z,13.15
2023-03-06T01:32:42.497Z,12.82
2023-03-06T01:36:45.887Z,12.82
2023-03-06T01:40:49.869Z,13.75
2023-03-06T01:45:06.135Z,14.07
2023-03-06T01:49:14.230Z,12.07
2023-03-06T01:53:17.435Z,12.45
2023-03-06T01:57:27.687Z,14.23
2023-03-06T02:01:33.664Z,13.32
2023-03-06T02:05:37.283Z,13.50
2023-03-06T02:09:40.686Z,10.25
2023-03-06T02:13:45.833Z,11.60
2023-03-06T02:17:52.866Z,12.60
2023-03-06T02:21:58.834Z,13.07
2023-03-06T02:26:05.091Z,12.40
2023-03-06T02:30:11.470Z,11.90
2023-03-06T02:35:02.698Z,11.98
2023-03-06T02:39:06.385Z,11.57
2023-03-06T02:43:14.179Z,10.65
2023-03-06T02:47:17.149Z,12.13
2023-03-06T02:51:20.332Z,9.13
2023-03-06T02:55:23.259Z,12.95
2023-03-06T02:59:28.331Z,10.55
2023-03-06T03:03:31.491Z,11.45
2023-03-06T03:07:34.808Z,14.18
2023-03-06T03:11:38.157Z,12.15
2023-03-06T03:15:42.926Z,9.65
2023-03-06T03:19:46.062Z,11.25
2023-03-06T03:23:49.096Z,11.40
2023-03-06T03:27:54.954Z,12.02
2023-03-06T03:31:59.404Z,11.60
2023-03-06T03:40:08.064Z,11.60
2023-03-06T03:44:11.388Z,10.55
2023-03-06T03:48:15.669Z,12.25
2023-03-06T03:52:18.096Z,12.43
2023-03-06T03:56:21.469Z,11.43
2023-03-06T04:00:24.826Z,12.80
2023-03-06T04:04:29.562Z,10.57
2023-03-06T04:08:32.777Z,10.32
2023-03-06T04:12:37.367Z,12.30
2023-03-06T04:16:40.602Z,10.80
2023-03-06T04:20:45.754Z,11.95
2023-03-06T04:24:50.081Z,12.68
2023-03-06T04:28:53.013Z,12.88
2023-03-06T04:32:55.652Z,12.65
2023-03-06T04:37:00.339Z,10.25
2023-03-06T04:41:03.134Z,12.48
2023-03-06T04:45:07.313Z,13.43
2023-03-06T04:49:10.301Z,11.35
2023-03-06T04:53:17.231Z,13.27
2023-03-06T04:57:21.050Z,12.73
2023-03-06T05:01:24.275Z,11.57
2023-03-06T05:05:27.495Z,11.30
2023-03-06T05:09:31.902Z,11.95
2023-03-06T05:13:38.154Z,12.98
2023-03-06T05:17:41.369Z,12.50
2023-03-06T05:26:10.015Z,9.60
2023-03-06T05:30:15.525Z,12.50
2023-03-06T05:34:18.553Z,11.60
2023-03-06T05:38:23.320Z,10.57
2023-03-06T05:42:28.924Z,13.13
2023-03-06T05:46:32.013Z,11.40
2023-03-06T05:50:39.332Z,11.02
2023-03-06T05:54:43.730Z,10.82
2023-03-06T05:58:48.208Z,12.63
2023-03-06T06:02:51.191Z,10.65
2023-03-06T06:06:55.955Z,12.90
2023-03-06T06:10:59.455Z,11.77
2023-03-06T06:15:03.738Z,13.13
2023-03-06T06:19:06.999Z,14.65
2023-03-06T06:23:12.390Z,16.95
2023-03-06T06:27:15.484Z,15.05
2023-03-06T06:31:20.133Z,15.32
2023-03-06T06:35:23.349Z,14.18
2023-03-06T06:39:26.693Z,11.63
2023-03-06T06:43:29.955Z,13.50
2023-03-06T06:47:34.661Z,13.02
2023-03-06T06:51:37.864Z,13.20
2023-03-06T06:55:44.119Z,12.20
2023-03-06T06:59:47.089Z,14.77
2023-03-06T07:03:51.520Z,13.40
2023-03-06T07:07:56.919Z,13.75
2023-03-06T07:12:01.200Z,11.20
2023-03-06T07:16:09.983Z,13.38
2023-03-06T07:20:17.773Z,12.82
2023-03-06T07:24:23.155Z,11.52
2023-03-06T07:28:26.364Z,13.13
2023-03-06T07:32:29.508Z,12.48
2023-03-06T07:36:36.692Z,14.57
2023-03-06T07:40:40.082Z,11.32
2023-03-06T07:44:45.710Z,14.25
2023-03-06T07:48:51.298Z,11.95
2023-03-06T07:52:55.663Z,11.95
2023-03-06T07:56:58.579Z,9.75
2023-03-06T08:01:05.364Z,11.07
2023-03-06T08:05:11.253Z,10.43
2023-03-06T08:09:16.023Z,10.77
2023-03-06T08:13:19.468Z,10.10
2023-03-06T08:17:22.744Z,11.95
2023-03-06T08:21:27.576Z,10.40
2023-03-06T08:25:37.474Z,11.82
2023-03-06T08:29:43.391Z,8.25
2023-03-06T08:33:46.742Z,8.30
2023-03-06T08:37:49.404Z,8.88
2023-03-06T08:41:53.959Z,9.07
2023-03-06T08:45:58.802Z,9.18
2023-03-06T08:50:04.787Z,10.48
2023-03-06T08:54:08.246Z,11.50
2023-03-06T09:02:17.139Z,11.38
2023-03-06T09:06:20.318Z,11.77
2023-03-06T09:10:25.450Z,11.57
2023-03-06T09:14:29.991Z,10.52
2023-03-06T09:18:35.372Z,11.93
2023-03-06T09:22:39.328Z,10.25
2023-03-06T09:26:46.671Z,10.80
2023-03-06T09:30:54.330Z,8.45
2023-03-06T09:34:57.534Z,9.10
2023-03-06T09:39:00.306Z,7.05
2023-03-06T09:43:08.714Z,9.38
2023-03-06T09:47:39.805Z,8.90
2023-03-06T09:51:59.183Z,7.68
2023-03-06T09:56:04.866Z,8.85
2023-03-06T10:00:14.830Z,7.88
2023-03-06T10:04:33.058Z,10.02
2023-03-06T10:08:48.117Z,8.30
2023-03-06T10:12:59.492Z,8.85
2023-03-06T10:17:03.114Z,8.35
2023-03-06T10:25:28.173Z,7.07
2023-03-06T10:29:56.324Z,7.45
2023-03-06T10:34:17.222Z,6.88
2023-03-06T10:38:27.744Z,7.25
2023-03-06T10:42:31.087Z,7.90
2023-03-06T10:46:36.136Z,6.38
2023-03-06T10:50:39.604Z,7.88
2023-03-06T10:58:49.086Z,8.75
2023-03-06T11:03:17.699Z,9.23
2023-03-06T11:07:22.825Z,7.38
2023-03-06T11:11:37.136Z,9.48
2023-03-06T11:15:56.554Z,10.18
2023-03-06T11:20:17.432Z,9.60
2023-03-06T11:24:22.851Z,10.00
2023-03-06T11:28:30.384Z,8.00
2023-03-06T11:32:39.721Z,10.88
2023-03-06T11:36:48.078Z,8.95
2023-03-06T11:40:57.626Z,10.00
2023-03-06T11:45:18.462Z,11.52
2023-03-06T11:49:26.048Z,12.77
2023-03-06T11:53:34.634Z,13.30
2023-03-06T11:57:49.124Z,12.10
2023-03-06T12:02:06.569Z,17.25
2023-03-06T12:06:17.878Z,12.10
2023-03-06T12:10:27.889Z,11.88
2023-03-06T12:14:43.898Z,11.25
2023-03-06T12:23:15.032Z,10.63
2023-03-06T12:27:36.274Z,11.82
2023-03-06T12:32:02.432Z,11.48
2023-03-06T12:36:29.700Z,10.57
2023-03-06T12:40:46.094Z,9.75
2023-03-06T12:45:23.431Z,9.85
2023-03-06T12:49:32.324Z,10.90
2023-03-06T12:53:41.051Z,7.57
2023-03-06T12:57:44.031Z,10.27
2023-03-06T13:02:26.642Z,10.30
2023-03-06T13:06:50.338Z,10.77
2023-03-06T13:11:20.886Z,11.88
2023-03-06T13:15:43.142Z,10.82
2023-03-06T13:19:46.441Z,12.23
2023-03-06T13:23:53.008Z,11.77
2023-03-06T13:28:05.066Z,12.25
2023-03-06T13:32:17.358Z,11.88
2023-03-06T13:36:27.637Z,13.18
2023-03-06T13:40:36.309Z,15.18
2023-03-06T13:44:46.295Z,15.93
2023-03-06T13:49:08.991Z,15.82
2023-03-06T13:53:55.698Z,17.55
2023-03-06T13:58:19.000Z,15.73
2023-03-06T14:02:42.364Z,15.75
2023-03-06T14:06:55.146Z,16.08
2023-03-06T14:11:04.047Z,15.70
2023-03-06T14:15:17.941Z,14.13
2023-03-06T14:19:23.060Z,16.63
2023-03-06T14:23:38.351Z,13.57
2023-03-06T14:27:45.443Z,13.82
2023-03-06T14:31:54.194Z,13.13
2023-03-06T14:36:04.599Z,16.70
2023-03-06T14:40:14.174Z,14.68
2023-03-06T14:44:19.882Z,9.45
2023-03-06T14:48:23.348Z,12.35
2023-03-06T14:52:27.787Z,12.52
2023-03-06T14:56:36.567Z,13.65
2023-03-06T15:00:44.078Z,11.32
2023-03-06T15:04:51.284Z,13.82
2023-03-06T15:09:05.905Z,12.15
2023-03-06T15:13:11.715Z,8.20
2023-03-06T15:17:39.911Z,12.38
2023-03-06T15:21:42.400Z,12.15
2023-03-06T15:26:05.397Z,10.73
2023-03-06T15:30:27.797Z,9.75
2023-03-06T15:34:32.295Z,10.65
2023-03-06T15:38:45.472Z,11.60
2023-03-06T15:42:54.856Z,12.38
2023-03-06T15:47:08.470Z,10.90
2023-03-06T15:51:12.051Z,10.55
2023-03-06T15:55:17.401Z,12.77
2023-03-06T15:59:27.128Z,11.38
2023-03-06T16:03:34.475Z,12.57
2023-03-06T16:07:38.424Z,12.57
2023-03-06T16:11:47.966Z,14.60
2023-03-06T16:16:05.266Z,13.45
2023-03-06T16:20:14.797Z,13.52
2023-03-06T16:24:23.386Z,12.10
2023-03-06T16:28:31.707Z,14.77
2023-03-06T16:32:42.013Z,16.45
2023-03-06T16:36:51.446Z,13.95
2023-03-06T16:40:54.953Z,12.60
2023-03-06T16:45:02.296Z,15.73
2023-03-06T16:49:08.806Z,14.50
2023-03-06T16:53:21.222Z,14.75
2023-03-06T16:57:32.831Z,13.55
2023-03-06T17:01:39.675Z,14.63
2023-03-06T17:05:51.404Z,15.00
2023-03-06T17:10:01.745Z,14.20
2023-03-06T17:14:08.790Z,15.30
2023-03-06T17:18:19.386Z,16.70
2023-03-06T17:22:29.017Z,17.60
2023-03-06T17:26:32.736Z,15.38
2023-03-06T17:30:41.026Z,20.23
2023-03-06T17:34:49.950Z,15.65
2023-03-06T17:38:58.924Z,15.82
2023-03-06T17:43:01.860Z,14.63
2023-03-06T17:47:05.524Z,14.32
2023-03-06T17:51:11.789Z,16.30
2023-03-06T17:55:16.091Z,16.08
2023-03-06T17:59:19.110Z,15.30
2023-03-06T18:03:22.747Z,12.85
2023-03-06T18:07:26.820Z,14.73
2023-03-06T18:11:31.496Z,13.13
2023-03-06T18:15:34.605Z,12.07
2023-03-06T18:19:38.689Z,12.50
2023-03-06T18:23:42.801Z,14.32
2023-03-06T18:27:49.665Z,11.50
2023-03-06T18:31:53.544Z,16.25
2023-03-06T18:35:56.968Z,13.23
2023-03-06T18:40:00.088Z,14.60
2023-03-06T18:44:07.091Z,15.98
2023-03-06T18:48:10.269Z,15.73
2023-03-06T18:52:15.139Z,14.48
2023-03-06T18:56:20.078Z,12.02
2023-03-06T19:00:29.197Z,13.75
2023-03-06T19:04:32.607Z,15.38
2023-03-06T19:12:38.912Z,13.80
2023-03-06T19:16:43.282Z,12.18
2023-03-06T19:20:46.632Z,13.85
2023-03-06T19:24:50.466Z,11.95
2023-03-06T19:33:00.003Z,10.98
2023-03-06T19:37:04.960Z,10.20
2023-03-06T19:41:13.584Z,10.85
2023-03-06T19:45:18.192Z,10.60
2023-03-06T19:49:22.704Z,10.85
2023-03-06T19:53:28.503Z,11.95
2023-03-06T19:57:31.688Z,8.77
2023-03-06T20:01:35.367Z,7.25
2023-03-06T20:09:52.644Z,6.32
2023-03-06T20:13:57.681Z,8.13
2023-03-06T20:18:01.064Z,7.70
2023-03-06T20:22:05.670Z,7.07
2023-03-06T20:26:16.268Z,6.97
2023-03-06T20:30:19.939Z,7.55
2023-03-06T20:34:22.965Z,6.97
2023-03-06T20:38:27.829Z,6.53
2023-03-06T20:42:30.477Z,9.25
2023-03-06T20:46:33.873Z,7.22
2023-03-06T20:50:39.774Z,5.68
2023-03-06T20:54:46.008Z,6.80
2023-03-06T20:58:51.676Z,13.00
2023-03-06T21:02:54.896Z,8.15
2023-03-06T21:06:58.030Z,7.07
2023-03-06T21:11:02.638Z,6.55
2023-03-06T21:15:06.627Z,6.75
2023-03-06T21:19:09.650Z,6.35
2023-03-06T21:23:12.826Z,7.60
2023-03-06T21:27:17.722Z,7.70
2023-03-06T21:31:23.067Z,7.50
2023-03-06T21:35:27.407Z,7.68
2023-03-06T21:39:32.621Z,10.48
2023-03-06T21:43:40.115Z,5.75
2023-03-06T21:47:42.906Z,7.43
2023-03-06T21:51:46.438Z,6.25
2023-03-06T21:55:49.942Z,8.13
2023-03-06T21:59:54.566Z,8.40
2023-03-06T22:03:58.759Z,7.07
2023-03-06T22:08:02.169Z,8.23
2023-03-06T22:12:08.491Z,9.63
2023-03-06T22:16:19.565Z,7.35
2023-03-06T22:20:24.703Z,10.57
2023-03-06T22:24:29.190Z,9.93
2023-03-06T22:28:32.183Z,9.40
2023-03-06T22:32:36.857Z,10.55
2023-03-06T22:36:40.118Z,13.25
2023-03-06T22:40:45.284Z,9.20
2023-03-06T22:44:48.641Z,17.17
2023-03-06T22:48:56.741Z,10.60
2023-03-06T22:52:59.737Z,11.27
2023-03-06T22:57:02.254Z,12.05
2023-03-06T23:01:10.078Z,14.13
2023-03-06T23:05:14.707Z,13.40
2023-03-06T23:09:20.841Z,15.38
2023-03-06T23:13:23.869Z,14.68
2023-03-06T23:17:26.995Z,11.23
2023-03-06T23:21:31.902Z,14.10
2023-03-06T23:25:35.056Z,12.70
2023-03-06T23:29:38.066Z,12.73
2023-03-06T23:33:42.019Z,16.52
2023-03-06T23:37:49.827Z,15.23
2023-03-06T23:41:55.687Z,13.90
2023-03-06T23:45:59.353Z,10.45
2023-03-06T23:50:02.710Z,14.15
2023-03-06T23:54:07.502Z,14.35
2023-03-06T23:58:13.070Z,13.32
